sensor_id;sensor_type;location;lat;lon;timestamp;P1;durP1;ratioP1;P2;durP2;ratioP2
15504;SDS011;7854;52.184;5.942;2022-12-18T00:03:15;114;;;44;;
15504;SDS011;7854;52.184;5.942;2022-12-18T00:04:58;108;;;41;;
15504;SDS011;7854;52.184;5.942;2022-12-18T00:07:14;100;;;38;;
15504;SDS011;7854;52.184;5.942;2022-12-18T00:09:27;100;;;39;;
15504;SDS011;7854;52.184;5.942;2022-12-18T00:11:42;89;;;41;;
15504;SDS011;7854;52.184;5.942;2022-12-18T00:13:57;114;;;41;;
15504;SDS011;7854;52.184;5.942;2022-12-18T00:16:12;81;;;38;;
15504;SDS011;7854;52.184;5.942;2022-12-18T00:18:25;79;;;35;;
15504;SDS011;7854;52.184;5.942;2022-12-18T00:20:40;87;;;38;;
15504;SDS011;7854;52.184;5.942;2022-12-18T00:22:55;93;;;38;;
15504;SDS011;7854;52.184;5.942;2022-12-18T00:25:09;93;;;37;;
15504;SDS011;7854;52.184;5.942;2022-12-18T00:27:23;87;;;36;;
15504;SDS011;7854;52.184;5.942;2022-12-18T00:29:39;91;;;34;;
15504;SDS011;7854;52.184;5.942;2022-12-18T00:31:52;99;;;37;;
15504;SDS011;7854;52.184;5.942;2022-12-18T00:34:08;104;;;37;;
15504;SDS011;7854;52.184;5.942;2022-12-18T00:36:22;80;;;33;;
15504;SDS011;7854;52.184;5.942;2022-12-18T00:38:36;87;;;38;;
15504;SDS011;7854;52.184;5.942;2022-12-18T00:40:50;81;;;36;;
15504;SDS011;7854;52.184;5.942;2022-12-18T00:43:04;84;;;34;;
15504;SDS011;7854;52.184;5.942;2022-12-18T00:45:19;77;;;36;;
15504;SDS011;7854;52.184;5.942;2022-12-18T00:47:33;84;;;37;;
15504;SDS011;7854;52.184;5.942;2022-12-18T00:49:47;73;;;36;;
15504;SDS011;7854;52.184;5.942;2022-12-18T00:52:02;81;;;36;;
15504;SDS011;7854;52.184;5.942;2022-12-18T00:54:16;66;;;32;;
15504;SDS011;7854;52.184;5.942;2022-12-18T00:56:31;79;;;34;;
15504;SDS011;7854;52.184;5.942;2022-12-18T00:58:45;75;;;35;;
15504;SDS011;7854;52.184;5.942;2022-12-18T01:01:00;75;;;32;;
15504;SDS011;7854;52.184;5.942;2022-12-18T01:03:15;93;;;36;;
15504;SDS011;7854;52.184;5.942;2022-12-18T01:05:29;59;;;28;;
15504;SDS011;7854;52.184;5.942;2022-12-18T01:07:43;89;;;34;;
15504;SDS011;7854;52.184;5.942;2022-12-18T01:09:58;75;;;34;;
15504;SDS011;7854;52.184;5.942;2022-12-18T01:12:12;80;;;34;;
15504;SDS011;7854;52.184;5.942;2022-12-18T01:14:27;75;;;32;;
15504;SDS011;7854;52.184;5.942;2022-12-18T01:16:41;77;;;35;;
15504;SDS011;7854;52.184;5.942;2022-12-18T01:18:56;146;;;33;;
15504;SDS011;7854;52.184;5.942;2022-12-18T01:21:11;73;;;33;;
15504;SDS011;7854;52.184;5.942;2022-12-18T01:23:26;84;;;34;;
15504;SDS011;7854;52.184;5.942;2022-12-18T01:25:39;83;;;35;;
15504;SDS011;7854;52.184;5.942;2022-12-18T01:27:53;78;;;35;;
15504;SDS011;7854;52.184;5.942;2022-12-18T01:30:08;68;;;33;;
15504;SDS011;7854;52.184;5.942;2022-12-18T01:32:22;80;;;36;;
15504;SDS011;7854;52.184;5.942;2022-12-18T01:36:51;69;;;33;;
15504;SDS011;7854;52.184;5.942;2022-12-18T01:39:06;56;;;31;;
15504;SDS011;7854;52.184;5.942;2022-12-18T01:41:21;75;;;32;;
15504;SDS011;7854;52.184;5.942;2022-12-18T01:43:43;73;;;32;;
15504;SDS011;7854;52.184;5.942;2022-12-18T01:45:49;66;;;29;;
15504;SDS011;7854;52.184;5.942;2022-12-18T01:48:04;69;;;31;;
15504;SDS011;7854;52.184;5.942;2022-12-18T01:50:21;52;;;28;;
15504;SDS011;7854;52.184;5.942;2022-12-18T01:52:33;53;;;29;;
15504;SDS011;7854;52.184;5.942;2022-12-18T01:54:47;73;;;31;;
15504;SDS011;7854;52.184;5.942;2022-12-18T01:57:01;59;;;29;;
15504;SDS011;7854;52.184;5.942;2022-12-18T01:59:15;55;;;29;;
15504;SDS011;7854;52.184;5.942;2022-12-18T02:01:31;58;;;32;;
15504;SDS011;7854;52.184;5.942;2022-12-18T02:03:45;57;;;28;;
15504;SDS011;7854;52.184;5.942;2022-12-18T02:06:00;52;;;28;;
15504;SDS011;7854;52.184;5.942;2022-12-18T02:08:15;53;;;28;;
15504;SDS011;7854;52.184;5.942;2022-12-18T02:10:29;42;;;25;;
15504;SDS011;7854;52.184;5.942;2022-12-18T02:12:43;52;;;26;;
15504;SDS011;7854;52.184;5.942;2022-12-18T02:14:58;64;;;27;;
15504;SDS011;7854;52.184;5.942;2022-12-18T02:17:13;53;;;27;;
15504;SDS011;7854;52.184;5.942;2022-12-18T02:19:32;69;;;28;;
15504;SDS011;7854;52.184;5.942;2022-12-18T02:21:43;59;;;27;;
15504;SDS011;7854;52.184;5.942;2022-12-18T02:23:56;63;;;30;;
15504;SDS011;7854;52.184;5.942;2022-12-18T02:26:12;57;;;25;;
15504;SDS011;7854;52.184;5.942;2022-12-18T02:28:23;44;;;25;;
15504;SDS011;7854;52.184;5.942;2022-12-18T02:30:37;47;;;24;;
15504;SDS011;7854;52.184;5.942;2022-12-18T02:32:52;49;;;27;;
15504;SDS011;7854;52.184;5.942;2022-12-18T02:35:07;44;;;25;;
15504;SDS011;7854;52.184;5.942;2022-12-18T02:37:21;58;;;25;;
15504;SDS011;7854;52.184;5.942;2022-12-18T02:39:35;66;;;26;;
15504;SDS011;7854;52.184;5.942;2022-12-18T02:41:49;70;;;29;;
15504;SDS011;7854;52.184;5.942;2022-12-18T02:44:08;66;;;29;;
15504;SDS011;7854;52.184;5.942;2022-12-18T02:46:24;54;;;24;;
15504;SDS011;7854;52.184;5.942;2022-12-18T02:48:32;44;;;25;;
15504;SDS011;7854;52.184;5.942;2022-12-18T02:50:48;56;;;27;;
15504;SDS011;7854;52.184;5.942;2022-12-18T02:53:04;49;;;27;;
15504;SDS011;7854;52.184;5.942;2022-12-18T02:55:17;51;;;24;;
15504;SDS011;7854;52.184;5.942;2022-12-18T02:57:32;46;;;25;;
15504;SDS011;7854;52.184;5.942;2022-12-18T02:59:46;56;;;28;;
15504;SDS011;7854;52.184;5.942;2022-12-18T03:02:02;52;;;27;;
15504;SDS011;7854;52.184;5.942;2022-12-18T03:04:14;66;;;30;;
15504;SDS011;7854;52.184;5.942;2022-12-18T03:06:28;41;;;23;;
15504;SDS011;7854;52.184;5.942;2022-12-18T03:08:42;46;;;24;;
15504;SDS011;7854;52.184;5.942;2022-12-18T03:10:58;58;;;26;;
15504;SDS011;7854;52.184;5.942;2022-12-18T03:13:12;50;;;26;;
15504;SDS011;7854;52.184;5.942;2022-12-18T03:15:26;61;;;26;;
15504;SDS011;7854;52.184;5.942;2022-12-18T03:17:40;52;;;27;;
15504;SDS011;7854;52.184;5.942;2022-12-18T03:19:54;44;;;24;;
15504;SDS011;7854;52.184;5.942;2022-12-18T03:22:09;42;;;22;;
15504;SDS011;7854;52.184;5.942;2022-12-18T03:24:23;67;;;26;;
15504;SDS011;7854;52.184;5.942;2022-12-18T03:26:37;42;;;24;;
15504;SDS011;7854;52.184;5.942;2022-12-18T03:28:52;37;;;21;;
15504;SDS011;7854;52.184;5.942;2022-12-18T03:31:07;42;;;22;;
15504;SDS011;7854;52.184;5.942;2022-12-18T03:33:23;30;;;20;;
15504;SDS011;7854;52.184;5.942;2022-12-18T03:35:37;61;;;23;;
15504;SDS011;7854;52.184;5.942;2022-12-18T03:37:49;42;;;22;;
15504;SDS011;7854;52.184;5.942;2022-12-18T03:40:04;42;;;21;;
15504;SDS011;7854;52.184;5.942;2022-12-18T03:42:20;36;;;21;;
15504;SDS011;7854;52.184;5.942;2022-12-18T03:44:35;40;;;20;;
15504;SDS011;7854;52.184;5.942;2022-12-18T03:46:49;42;;;22;;
15504;SDS011;7854;52.184;5.942;2022-12-18T03:49:04;32;;;20;;
15504;SDS011;7854;52.184;5.942;2022-12-18T03:51:17;43;;;21;;
15504;SDS011;7854;52.184;5.942;2022-12-18T03:53:32;38;;;20;;
15504;SDS011;7854;52.184;5.942;2022-12-18T03:55:45;33;;;19;;
15504;SDS011;7854;52.184;5.942;2022-12-18T03:57:59;42;;;21;;
15504;SDS011;7854;52.184;5.942;2022-12-18T04:00:15;61;;;22;;
15504;SDS011;7854;52.184;5.942;2022-12-18T04:02:29;41;;;21;;
15504;SDS011;7854;52.184;5.942;2022-12-18T04:04:43;42;;;22;;
15504;SDS011;7854;52.184;5.942;2022-12-18T04:06:57;59;;;23;;
15504;SDS011;7854;52.184;5.942;2022-12-18T04:09:12;69;;;22;;
15504;SDS011;7854;52.184;5.942;2022-12-18T04:11:26;32;;;20;;
15504;SDS011;7854;52.184;5.942;2022-12-18T04:13:41;54;;;23;;
15504;SDS011;7854;52.184;5.942;2022-12-18T04:15:55;36;;;21;;
15504;SDS011;7854;52.184;5.942;2022-12-18T04:18:09;42;;;21;;
15504;SDS011;7854;52.184;5.942;2022-12-18T04:20:24;46;;;22;;
15504;SDS011;7854;52.184;5.942;2022-12-18T04:22:38;43;;;23;;
15504;SDS011;7854;52.184;5.942;2022-12-18T04:24:53;44;;;23;;
15504;SDS011;7854;52.184;5.942;2022-12-18T04:27:08;36;;;21;;
15504;SDS011;7854;52.184;5.942;2022-12-18T04:29:22;43;;;21;;
15504;SDS011;7854;52.184;5.942;2022-12-18T04:31:37;49;;;23;;
15504;SDS011;7854;52.184;5.942;2022-12-18T04:33:51;30;;;21;;
15504;SDS011;7854;52.184;5.942;2022-12-18T04:36:06;49;;;23;;
15504;SDS011;7854;52.184;5.942;2022-12-18T04:38:19;42;;;20;;
15504;SDS011;7854;52.184;5.942;2022-12-18T04:40:35;40;;;21;;
15504;SDS011;7854;52.184;5.942;2022-12-18T04:42:49;35;;;21;;
15504;SDS011;7854;52.184;5.942;2022-12-18T04:45:03;49;;;22;;
15504;SDS011;7854;52.184;5.942;2022-12-18T04:47:17;41;;;21;;
15504;SDS011;7854;52.184;5.942;2022-12-18T04:49:32;45;;;20;;
15504;SDS011;7854;52.184;5.942;2022-12-18T04:51:47;31;;;19;;
15504;SDS011;7854;52.184;5.942;2022-12-18T04:54:01;42;;;20;;
15504;SDS011;7854;52.184;5.942;2022-12-18T04:56:15;46;;;22;;
15504;SDS011;7854;52.184;5.942;2022-12-18T04:58:30;34;;;18;;
15504;SDS011;7854;52.184;5.942;2022-12-18T05:00:44;31;;;18;;
15504;SDS011;7854;52.184;5.942;2022-12-18T05:03:00;32;;;17;;
15504;SDS011;7854;52.184;5.942;2022-12-18T05:05:13;27;;;18;;
15504;SDS011;7854;52.184;5.942;2022-12-18T05:07:26;32;;;20;;
15504;SDS011;7854;52.184;5.942;2022-12-18T05:09:41;30;;;18;;
15504;SDS011;7854;52.184;5.942;2022-12-18T05:11:56;46;;;18;;
15504;SDS011;7854;52.184;5.942;2022-12-18T05:14:10;30;;;18;;
15504;SDS011;7854;52.184;5.942;2022-12-18T05:16:25;33;;;19;;
15504;SDS011;7854;52.184;5.942;2022-12-18T05:18:39;44;;;18;;
15504;SDS011;7854;52.184;5.942;2022-12-18T05:20:53;31;;;17;;
15504;SDS011;7854;52.184;5.942;2022-12-18T05:23:08;37;;;19;;
15504;SDS011;7854;52.184;5.942;2022-12-18T05:25:22;29;;;17;;
15504;SDS011;7854;52.184;5.942;2022-12-18T05:27:37;30;;;17;;
15504;SDS011;7854;52.184;5.942;2022-12-18T05:29:51;31;;;18;;
15504;SDS011;7854;52.184;5.942;2022-12-18T05:32:05;28;;;17;;
15504;SDS011;7854;52.184;5.942;2022-12-18T05:34:20;34;;;17;;
15504;SDS011;7854;52.184;5.942;2022-12-18T05:36:34;30;;;17;;
15504;SDS011;7854;52.184;5.942;2022-12-18T05:38:49;26;;;17;;
15504;SDS011;7854;52.184;5.942;2022-12-18T05:41:03;42;;;17;;
15504;SDS011;7854;52.184;5.942;2022-12-18T05:43:18;19;;;16;;
15504;SDS011;7854;52.184;5.942;2022-12-18T05:45:32;31;;;17;;
15504;SDS011;7854;52.184;5.942;2022-12-18T05:47:47;22;;;17;;
15504;SDS011;7854;52.184;5.942;2022-12-18T05:50:02;22;;;15;;
15504;SDS011;7854;52.184;5.942;2022-12-18T05:52:15;38;;;17;;
15504;SDS011;7854;52.184;5.942;2022-12-18T05:54:30;31;;;16;;
15504;SDS011;7854;52.184;5.942;2022-12-18T05:56:44;19;;;16;;
15504;SDS011;7854;52.184;5.942;2022-12-18T05:58:59;22;;;17;;
15504;SDS011;7854;52.184;5.942;2022-12-18T06:01:14;36;;;17;;
15504;SDS011;7854;52.184;5.942;2022-12-18T06:03:28;23;;;18;;
15504;SDS011;7854;52.184;5.942;2022-12-18T06:05:43;20;;;14;;
15504;SDS011;7854;52.184;5.942;2022-12-18T06:07:57;21;;;15;;
15504;SDS011;7854;52.184;5.942;2022-12-18T06:10:11;38;;;17;;
15504;SDS011;7854;52.184;5.942;2022-12-18T06:12:25;29;;;17;;
15504;SDS011;7854;52.184;5.942;2022-12-18T06:14:40;26;;;16;;
15504;SDS011;7854;52.184;5.942;2022-12-18T06:16:54;35;;;16;;
15504;SDS011;7854;52.184;5.942;2022-12-18T06:19:12;24;;;16;;
15504;SDS011;7854;52.184;5.942;2022-12-18T06:21:23;31;;;16;;
15504;SDS011;7854;52.184;5.942;2022-12-18T06:23:38;25;;;15;;
15504;SDS011;7854;52.184;5.942;2022-12-18T06:25:53;25;;;17;;
15504;SDS011;7854;52.184;5.942;2022-12-18T06:28:07;20;;;15;;
15504;SDS011;7854;52.184;5.942;2022-12-18T06:30:21;38;;;17;;
15504;SDS011;7854;52.184;5.942;2022-12-18T06:32:36;35;;;16;;
15504;SDS011;7854;52.184;5.942;2022-12-18T06:34:50;37;;;19;;
15504;SDS011;7854;52.184;5.942;2022-12-18T06:37:04;35;;;17;;
15504;SDS011;7854;52.184;5.942;2022-12-18T06:39:19;25;;;17;;
15504;SDS011;7854;52.184;5.942;2022-12-18T06:41:33;21;;;15;;
15504;SDS011;7854;52.184;5.942;2022-12-18T06:43:48;22;;;16;;
15504;SDS011;7854;52.184;5.942;2022-12-18T06:46:03;34;;;16;;
15504;SDS011;7854;52.184;5.942;2022-12-18T06:48:17;25;;;15;;
15504;SDS011;7854;52.184;5.942;2022-12-18T06:50:31;24;;;14;;
15504;SDS011;7854;52.184;5.942;2022-12-18T06:52:46;25;;;16;;
15504;SDS011;7854;52.184;5.942;2022-12-18T06:55:00;25;;;16;;
15504;SDS011;7854;52.184;5.942;2022-12-18T06:57:14;29;;;18;;
15504;SDS011;7854;52.184;5.942;2022-12-18T06:59:29;48;;;18;;
15504;SDS011;7854;52.184;5.942;2022-12-18T07:01:43;31;;;17;;
15504;SDS011;7854;52.184;5.942;2022-12-18T07:03:58;29;;;15;;
15504;SDS011;7854;52.184;5.942;2022-12-18T07:06:13;24;;;16;;
15504;SDS011;7854;52.184;5.942;2022-12-18T07:08:28;35;;;17;;
15504;SDS011;7854;52.184;5.942;2022-12-18T07:10:42;16;;;12;;
15504;SDS011;7854;52.184;5.942;2022-12-18T07:12:56;25;;;16;;
15504;SDS011;7854;52.184;5.942;2022-12-18T07:15:10;24;;;15;;
15504;SDS011;7854;52.184;5.942;2022-12-18T07:17:25;20;;;14;;
15504;SDS011;7854;52.184;5.942;2022-12-18T07:19:39;28;;;15;;
15504;SDS011;7854;52.184;5.942;2022-12-18T07:21:53;23;;;16;;
15504;SDS011;7854;52.184;5.942;2022-12-18T07:24:08;25;;;14;;
15504;SDS011;7854;52.184;5.942;2022-12-18T07:26:22;21;;;14;;
15504;SDS011;7854;52.184;5.942;2022-12-18T07:28:38;25;;;16;;
15504;SDS011;7854;52.184;5.942;2022-12-18T07:30:51;20;;;13;;
15504;SDS011;7854;52.184;5.942;2022-12-18T07:33:05;22;;;15;;
15504;SDS011;7854;52.184;5.942;2022-12-18T07:35:20;24;;;16;;
15504;SDS011;7854;52.184;5.942;2022-12-18T07:37:34;32;;;18;;
15504;SDS011;7854;52.184;5.942;2022-12-18T07:39:48;23;;;15;;
15504;SDS011;7854;52.184;5.942;2022-12-18T07:42:03;36;;;16;;
15504;SDS011;7854;52.184;5.942;2022-12-18T07:44:17;30;;;17;;
15504;SDS011;7854;52.184;5.942;2022-12-18T07:46:32;34;;;16;;
15504;SDS011;7854;52.184;5.942;2022-12-18T07:48:46;26;;;16;;
15504;SDS011;7854;52.184;5.942;2022-12-18T07:51:01;28;;;18;;
15504;SDS011;7854;52.184;5.942;2022-12-18T07:53:15;31;;;18;;
15504;SDS011;7854;52.184;5.942;2022-12-18T07:55:29;28;;;17;;
15504;SDS011;7854;52.184;5.942;2022-12-18T07:57:44;35;;;17;;
15504;SDS011;7854;52.184;5.942;2022-12-18T07:59:58;43;;;19;;
15504;SDS011;7854;52.184;5.942;2022-12-18T08:02:13;23;;;17;;
15504;SDS011;7854;52.184;5.942;2022-12-18T08:04:27;24;;;17;;
15504;SDS011;7854;52.184;5.942;2022-12-18T08:06:41;24;;;17;;
15504;SDS011;7854;52.184;5.942;2022-12-18T08:08:56;28;;;19;;
15504;SDS011;7854;52.184;5.942;2022-12-18T08:11:10;36;;;20;;
15504;SDS011;7854;52.184;5.942;2022-12-18T08:13:25;27;;;16;;
15504;SDS011;7854;52.184;5.942;2022-12-18T08:15:39;30;;;16;;
15504;SDS011;7854;52.184;5.942;2022-12-18T08:17:55;30;;;18;;
15504;SDS011;7854;52.184;5.942;2022-12-18T08:20:08;36;;;19;;
15504;SDS011;7854;52.184;5.942;2022-12-18T08:22:23;28;;;18;;
15504;SDS011;7854;52.184;5.942;2022-12-18T08:24:37;32;;;19;;
15504;SDS011;7854;52.184;5.942;2022-12-18T08:26:52;26;;;15;;
15504;SDS011;7854;52.184;5.942;2022-12-18T08:29:06;24;;;17;;
15504;SDS011;7854;52.184;5.942;2022-12-18T08:31:21;25;;;16;;
15504;SDS011;7854;52.184;5.942;2022-12-18T08:33:36;30;;;16;;
15504;SDS011;7854;52.184;5.942;2022-12-18T08:35:50;26;;;17;;
15504;SDS011;7854;52.184;5.942;2022-12-18T08:38:04;36;;;19;;
15504;SDS011;7854;52.184;5.942;2022-12-18T08:40:18;20;;;15;;
15504;SDS011;7854;52.184;5.942;2022-12-18T08:42:34;26;;;17;;
15504;SDS011;7854;52.184;5.942;2022-12-18T08:44:47;31;;;18;;
15504;SDS011;7854;52.184;5.942;2022-12-18T08:47:02;25;;;17;;
15504;SDS011;7854;52.184;5.942;2022-12-18T08:49:16;28;;;17;;
15504;SDS011;7854;52.184;5.942;2022-12-18T08:51:31;29;;;17;;
15504;SDS011;7854;52.184;5.942;2022-12-18T08:53:45;26;;;16;;
15504;SDS011;7854;52.184;5.942;2022-12-18T08:55:59;22;;;17;;
15504;SDS011;7854;52.184;5.942;2022-12-18T08:58:14;21;;;15;;
15504;SDS011;7854;52.184;5.942;2022-12-18T09:00:28;27;;;17;;
15504;SDS011;7854;52.184;5.942;2022-12-18T09:02:43;18;;;15;;
15504;SDS011;7854;52.184;5.942;2022-12-18T09:04:58;23;;;15;;
15504;SDS011;7854;52.184;5.942;2022-12-18T09:07:12;17;;;15;;
15504;SDS011;7854;52.184;5.942;2022-12-18T09:09:26;22;;;15;;
15504;SDS011;7854;52.184;5.942;2022-12-18T09:11:41;29;;;16;;
15504;SDS011;7854;52.184;5.942;2022-12-18T09:13:56;28;;;17;;
15504;SDS011;7854;52.184;5.942;2022-12-18T09:16:10;31;;;17;;
15504;SDS011;7854;52.184;5.942;2022-12-18T09:18:24;19;;;14;;
15504;SDS011;7854;52.184;5.942;2022-12-18T09:20:38;23;;;16;;
15504;SDS011;7854;52.184;5.942;2022-12-18T09:22:53;31;;;16;;
15504;SDS011;7854;52.184;5.942;2022-12-18T09:25:07;22;;;16;;
15504;SDS011;7854;52.184;5.942;2022-12-18T09:27:22;22;;;15;;
15504;SDS011;7854;52.184;5.942;2022-12-18T09:29:36;35;;;15;;
15504;SDS011;7854;52.184;5.942;2022-12-18T09:31:51;20;;;14;;
15504;SDS011;7854;52.184;5.942;2022-12-18T09:34:05;21;;;14;;
15504;SDS011;7854;52.184;5.942;2022-12-18T09:36:20;20;;;14;;
15504;SDS011;7854;52.184;5.942;2022-12-18T09:38:34;21;;;15;;
15504;SDS011;7854;52.184;5.942;2022-12-18T09:40:50;20;;;13;;
15504;SDS011;7854;52.184;5.942;2022-12-18T09:43:04;12;;;11;;
15504;SDS011;7854;52.184;5.942;2022-12-18T09:45:18;14;;;12;;
15504;SDS011;7854;52.184;5.942;2022-12-18T09:47:33;17;;;14;;
15504;SDS011;7854;52.184;5.942;2022-12-18T09:49:47;57;;;25;;
15504;SDS011;7854;52.184;5.942;2022-12-18T09:52:02;41;;;23;;
15504;SDS011;7854;52.184;5.942;2022-12-18T09:54:16;30;;;13;;
15504;SDS011;7854;52.184;5.942;2022-12-18T09:56:29;15;;;14;;
15504;SDS011;7854;52.184;5.942;2022-12-18T09:58:44;16;;;14;;
15504;SDS011;7854;52.184;5.942;2022-12-18T10:00:58;13;;;11;;
15504;SDS011;7854;52.184;5.942;2022-12-18T10:03:13;16;;;12;;
15504;SDS011;7854;52.184;5.942;2022-12-18T10:05:29;36;;;12;;
15504;SDS011;7854;52.184;5.942;2022-12-18T10:07:45;12;;;11;;
15504;SDS011;7854;52.184;5.942;2022-12-18T10:09:57;19;;;11;;
15504;SDS011;7854;52.184;5.942;2022-12-18T10:12:12;14;;;11;;
15504;SDS011;7854;52.184;5.942;2022-12-18T10:14:26;14;;;12;;
15504;SDS011;7854;52.184;5.942;2022-12-18T10:16:40;10;;;9;;
15504;SDS011;7854;52.184;5.942;2022-12-18T10:18:57;15;;;10;;
15504;SDS011;7854;52.184;5.942;2022-12-18T10:21:09;11;;;10;;
15504;SDS011;7854;52.184;5.942;2022-12-18T10:23:22;11;;;10;;
15504;SDS011;7854;52.184;5.942;2022-12-18T10:25:38;19;;;11;;
15504;SDS011;7854;52.184;5.942;2022-12-18T10:27:51;11;;;10;;
15504;SDS011;7854;52.184;5.942;2022-12-18T10:30:08;14;;;10;;
15504;SDS011;7854;52.184;5.942;2022-12-18T10:32:19;17;;;10;;
15504;SDS011;7854;52.184;5.942;2022-12-18T10:34:33;11;;;10;;
15504;SDS011;7854;52.184;5.942;2022-12-18T10:36:47;13;;;10;;
15504;SDS011;7854;52.184;5.942;2022-12-18T10:39:13;16;;;10;;
15504;SDS011;7854;52.184;5.942;2022-12-18T10:41:24;11;;;10;;
15504;SDS011;7854;52.184;5.942;2022-12-18T10:43:31;11;;;10;;
15504;SDS011;7854;52.184;5.942;2022-12-18T10:45:57;16;;;9;;
15504;SDS011;7854;52.184;5.942;2022-12-18T10:47:59;15;;;11;;
15504;SDS011;7854;52.184;5.942;2022-12-18T10:50:23;20;;;10;;
15504;SDS011;7854;52.184;5.942;2022-12-18T10:52:28;13;;;11;;
15504;SDS011;7854;52.184;5.942;2022-12-18T10:54:46;15;;;8;;
15504;SDS011;7854;52.184;5.942;2022-12-18T10:57:13;9;;;8;;
15504;SDS011;7854;52.184;5.942;2022-12-18T10:59:12;9;;;9;;
15504;SDS011;7854;52.184;5.942;2022-12-18T11:01:26;9;;;8;;
15504;SDS011;7854;52.184;5.942;2022-12-18T11:03:41;9;;;8;;
15504;SDS011;7854;52.184;5.942;2022-12-18T11:06:01;38;;;17;;
15504;SDS011;7854;52.184;5.942;2022-12-18T11:08:19;18;;;13;;
15504;SDS011;7854;52.184;5.942;2022-12-18T11:10:26;85;;;27;;
15504;SDS011;7854;52.184;5.942;2022-12-18T11:12:38;95;;;41;;
15504;SDS011;7854;52.184;5.942;2022-12-18T11:14:53;55;;;25;;
15504;SDS011;7854;52.184;5.942;2022-12-18T11:17:16;67;;;33;;
15504;SDS011;7854;52.184;5.942;2022-12-18T11:19:26;50;;;27;;
15504;SDS011;7854;52.184;5.942;2022-12-18T11:21:38;18;;;14;;
15504;SDS011;7854;52.184;5.942;2022-12-18T11:23:52;10;;;9;;
15504;SDS011;7854;52.184;5.942;2022-12-18T11:26:05;36;;;10;;
15504;SDS011;7854;52.184;5.942;2022-12-18T11:28:28;9;;;9;;
15504;SDS011;7854;52.184;5.942;2022-12-18T11:30:35;8;;;8;;
15504;SDS011;7854;52.184;5.942;2022-12-18T11:32:48;11;;;8;;
15504;SDS011;7854;52.184;5.942;2022-12-18T11:35:04;12;;;8;;
15504;SDS011;7854;52.184;5.942;2022-12-18T11:37:17;9;;;8;;
15504;SDS011;7854;52.184;5.942;2022-12-18T11:39:33;12;;;8;;
15504;SDS011;7854;52.184;5.942;2022-12-18T11:41:47;14;;;9;;
15504;SDS011;7854;52.184;5.942;2022-12-18T11:44:00;10;;;8;;
15504;SDS011;7854;52.184;5.942;2022-12-18T11:46:17;9;;;8;;
15504;SDS011;7854;52.184;5.942;2022-12-18T11:48:30;20;;;10;;
15504;SDS011;7854;52.184;5.942;2022-12-18T11:50:46;11;;;10;;
15504;SDS011;7854;52.184;5.942;2022-12-18T11:52:58;8;;;7;;
15504;SDS011;7854;52.184;5.942;2022-12-18T11:55:13;9;;;8;;
15504;SDS011;7854;52.184;5.942;2022-12-18T11:57:30;9;;;8;;
15504;SDS011;7854;52.184;5.942;2022-12-18T11:59:43;9;;;8;;
15504;SDS011;7854;52.184;5.942;2022-12-18T12:01:57;7;;;7;;
15504;SDS011;7854;52.184;5.942;2022-12-18T12:04:17;9;;;9;;
15504;SDS011;7854;52.184;5.942;2022-12-18T12:06:26;10;;;8;;
15504;SDS011;7854;52.184;5.942;2022-12-18T12:08:42;10;;;9;;
15504;SDS011;7854;52.184;5.942;2022-12-18T12:10:56;13;;;11;;
15504;SDS011;7854;52.184;5.942;2022-12-18T12:13:14;14;;;11;;
15504;SDS011;7854;52.184;5.942;2022-12-18T12:15:25;10;;;9;;
15504;SDS011;7854;52.184;5.942;2022-12-18T12:17:38;8;;;7;;
15504;SDS011;7854;52.184;5.942;2022-12-18T12:19:53;9;;;8;;
15504;SDS011;7854;52.184;5.942;2022-12-18T12:22:08;7;;;7;;
15504;SDS011;7854;52.184;5.942;2022-12-18T12:26:37;7;;;6;;
15504;SDS011;7854;52.184;5.942;2022-12-18T12:28:52;9;;;8;;
15504;SDS011;7854;52.184;5.942;2022-12-18T12:31:05;9;;;8;;
15504;SDS011;7854;52.184;5.942;2022-12-18T12:33:22;11;;;8;;
15504;SDS011;7854;52.184;5.942;2022-12-18T12:35:36;9;;;8;;
15504;SDS011;7854;52.184;5.942;2022-12-18T12:37:49;9;;;8;;
15504;SDS011;7854;52.184;5.942;2022-12-18T12:40:02;8;;;8;;
15504;SDS011;7854;52.184;5.942;2022-12-18T12:42:18;11;;;8;;
15504;SDS011;7854;52.184;5.942;2022-12-18T12:44:32;9;;;8;;
15504;SDS011;7854;52.184;5.942;2022-12-18T12:46:45;8;;;7;;
15504;SDS011;7854;52.184;5.942;2022-12-18T12:48:59;9;;;8;;
15504;SDS011;7854;52.184;5.942;2022-12-18T12:51:15;7;;;7;;
15504;SDS011;7854;52.184;5.942;2022-12-18T12:53:28;9;;;8;;
15504;SDS011;7854;52.184;5.942;2022-12-18T12:55:41;9;;;8;;
15504;SDS011;7854;52.184;5.942;2022-12-18T12:57:57;7;;;7;;
15504;SDS011;7854;52.184;5.942;2022-12-18T13:00:11;11;;;8;;
15504;SDS011;7854;52.184;5.942;2022-12-18T13:02:27;9;;;8;;
15504;SDS011;7854;52.184;5.942;2022-12-18T13:04:39;7;;;7;;
15504;SDS011;7854;52.184;5.942;2022-12-18T13:06:54;7;;;7;;
15504;SDS011;7854;52.184;5.942;2022-12-18T13:09:08;7;;;6;;
15504;SDS011;7854;52.184;5.942;2022-12-18T13:11:38;8;;;7;;
15504;SDS011;7854;52.184;5.942;2022-12-18T13:13:47;14;;;8;;
15504;SDS011;7854;52.184;5.942;2022-12-18T13:16:03;11;;;8;;
15504;SDS011;7854;52.184;5.942;2022-12-18T13:18:21;24;;;15;;
15504;SDS011;7854;52.184;5.942;2022-12-18T13:20:20;13;;;12;;
15504;SDS011;7854;52.184;5.942;2022-12-18T13:22:35;8;;;8;;
15504;SDS011;7854;52.184;5.942;2022-12-18T13:24:48;8;;;8;;
15504;SDS011;7854;52.184;5.942;2022-12-18T13:27:05;7;;;7;;
15504;SDS011;7854;52.184;5.942;2022-12-18T13:29:40;11;;;10;;
15504;SDS011;7854;52.184;5.942;2022-12-18T13:32:34;10;;;9;;
15504;SDS011;7854;52.184;5.942;2022-12-18T13:33:46;11;;;8;;
15504;SDS011;7854;52.184;5.942;2022-12-18T13:36:01;8;;;7;;
15504;SDS011;7854;52.184;5.942;2022-12-18T13:38:20;7;;;6;;
15504;SDS011;7854;52.184;5.942;2022-12-18T13:42:43;8;;;7;;
15504;SDS011;7854;52.184;5.942;2022-12-18T13:44:58;7;;;7;;
15504;SDS011;7854;52.184;5.942;2022-12-18T13:47:25;7;;;7;;
15504;SDS011;7854;52.184;5.942;2022-12-18T13:49:28;11;;;8;;
15504;SDS011;7854;52.184;5.942;2022-12-18T13:51:41;10;;;7;;
15504;SDS011;7854;52.184;5.942;2022-12-18T13:53:57;9;;;8;;
15504;SDS011;7854;52.184;5.942;2022-12-18T13:56:14;7;;;7;;
15504;SDS011;7854;52.184;5.942;2022-12-18T13:58:24;9;;;8;;
15504;SDS011;7854;52.184;5.942;2022-12-18T14:00:40;12;;;11;;
15504;SDS011;7854;52.184;5.942;2022-12-18T14:02:52;11;;;10;;
15504;SDS011;7854;52.184;5.942;2022-12-18T14:05:20;12;;;8;;
15504;SDS011;7854;52.184;5.942;2022-12-18T14:07:22;9;;;8;;
15504;SDS011;7854;52.184;5.942;2022-12-18T14:09:36;9;;;8;;
15504;SDS011;7854;52.184;5.942;2022-12-18T14:11:50;11;;;10;;
15504;SDS011;7854;52.184;5.942;2022-12-18T14:14:05;11;;;9;;
15504;SDS011;7854;52.184;5.942;2022-12-18T14:16:19;13;;;8;;
15504;SDS011;7854;52.184;5.942;2022-12-18T14:18:37;9;;;8;;
15504;SDS011;7854;52.184;5.942;2022-12-18T14:20:48;9;;;8;;
15504;SDS011;7854;52.184;5.942;2022-12-18T14:23:02;9;;;8;;
15504;SDS011;7854;52.184;5.942;2022-12-18T14:25:18;9;;;9;;
15504;SDS011;7854;52.184;5.942;2022-12-18T14:27:31;8;;;7;;
15504;SDS011;7854;52.184;5.942;2022-12-18T14:29:45;9;;;8;;
15504;SDS011;7854;52.184;5.942;2022-12-18T14:32:09;8;;;7;;
15504;SDS011;7854;52.184;5.942;2022-12-18T14:34:15;8;;;7;;
15504;SDS011;7854;52.184;5.942;2022-12-18T14:36:29;17;;;10;;
15504;SDS011;7854;52.184;5.942;2022-12-18T14:38:43;23;;;11;;
15504;SDS011;7854;52.184;5.942;2022-12-18T14:40:58;12;;;10;;
15504;SDS011;7854;52.184;5.942;2022-12-18T14:43:12;28;;;14;;
15504;SDS011;7854;52.184;5.942;2022-12-18T14:45:39;11;;;10;;
15504;SDS011;7854;52.184;5.942;2022-12-18T14:47:42;32;;;15;;
15504;SDS011;7854;52.184;5.942;2022-12-18T14:49:54;14;;;11;;